Time,TemperatureF,DewpointF,PressureIn,WindDirection,WindDirectionDegrees,WindSpeedMPH,WindSpeedGustMPH,Humidity,HourlyPrecipIn,Conditions,Clouds,dailyrainin,SoftwareType,DateUTC
2013-08-10 00:02:00,74.0,48.1,30.02,ESE,103,3.0,3.0,40,0.00,,,0.00,Wunderground v.1.15,2013-08-10 06:02:00,
2013-08-10 00:12:00,73.9,48.1,30.02,SE,129,2.0,4.0,40,0.00,,,0.00,Wunderground v.1.15,2013-08-10 06:12:00,
2013-08-10 00:22:00,73.7,47.9,30.01,SSE,148,2.0,2.0,40,0.00,,,0.00,Wunderground v.1.15,2013-08-10 06:22:00,
2013-08-10 00:32:00,73.0,48.5,30.01,SE,132,1.0,1.0,42,0.00,,,0.00,Wunderground v.1.15,2013-08-10 06:32:00,
2013-08-10 00:42:00,72.6,48.8,30.01,SE,132,2.0,2.0,43,0.00,,,0.00,Wunderground v.1.15,2013-08-10 06:42:00,
2013-08-10 00:52:00,72.6,48.8,30.00,East,100,3.0,4.0,43,0.00,,,0.00,Wunderground v.1.15,2013-08-10 06:52:00,
2013-08-10 01:02:00,72.1,49.6,30.00,SSE,150,7.0,10.0,45,0.00,,,0.00,Wunderground v.1.15,2013-08-10 07:02:00,
2013-08-10 01:12:00,71.7,49.2,30.00,East,87,8.0,9.0,45,0.00,,,0.00,Wunderground v.1.15,2013-08-10 07:12:00,
2013-08-10 01:22:00,71.8,48.7,30.00,ESE,120,6.0,6.0,44,0.00,,,0.00,Wunderground v.1.15,2013-08-10 07:22:00,
2013-08-10 01:27:00,72.0,48.9,30.00,SE,141,6.0,6.0,44,0.00,,,0.00,Wunderground v.1.15,2013-08-10 07:27:00,
2013-08-10 01:37:00,72.2,47.8,30.00,ESE,122,4.0,5.0,42,0.00,,,0.00,Wunderground v.1.15,2013-08-10 07:37:00,
2013-08-10 01:47:00,72.2,47.8,30.00,ESE,114,3.0,6.0,42,0.00,,,0.00,Wunderground v.1.15,2013-08-10 07:47:00,
2013-08-10 01:52:00,72.1,47.7,30.00,ESE,113,4.0,8.0,42,0.00,,,0.00,Wunderground v.1.15,2013-08-10 07:52:00,
2013-08-10 02:02:00,72.2,46.5,30.00,SSE,158,5.0,5.0,40,0.00,,,0.00,Wunderground v.1.15,2013-08-10 08:02:00,
2013-08-10 02:12:00,72.1,46.4,30.00,SE,141,4.0,4.0,40,0.00,,,0.00,Wunderground v.1.15,2013-08-10 08:12:00,
2013-08-10 02:17:00,72.0,46.3,30.00,SE,134,3.0,4.0,40,0.00,,,0.00,Wunderground v.1.15,2013-08-10 08:17:00,
2013-08-10 02:27:00,71.2,46.3,30.01,North,9,1.0,2.0,41,0.00,,,0.00,Wunderground v.1.15,2013-08-10 08:27:00,
2013-08-10 02:32:00,70.9,46.0,30.01,North,353,1.0,1.0,41,0.00,,,0.00,Wunderground v.1.15,2013-08-10 08:32:00,
2013-08-10 02:42:00,70.1,48.9,30.01,NW,314,2.0,2.0,47,0.00,,,0.00,Wunderground v.1.15,2013-08-10 08:42:00,
2013-08-10 02:47:00,69.7,50.2,30.02,WNW,298,3.0,3.0,50,0.00,,,0.00,Wunderground v.1.15,2013-08-10 08:47:00,
2013-08-10 02:57:00,68.9,50.5,30.02,NNE,18,2.0,5.0,52,0.00,,,0.00,Wunderground v.1.15,2013-08-10 08:57:00,
2013-08-10 03:02:00,68.6,50.8,30.02,NNE,14,2.0,2.0,53,0.00,,,0.00,Wunderground v.1.15,2013-08-10 09:02:00,
2013-08-10 03:12:00,68.1,51.3,30.03,NNE,15,0.0,0.0,55,0.00,,,0.00,Wunderground v.1.15,2013-08-10 09:12:00,
2013-08-10 03:17:00,67.7,51.4,30.03,NNE,15,0.0,0.0,56,0.00,,,0.00,Wunderground v.1.15,2013-08-10 09:17:00,
2013-08-10 03:27:00,67.1,51.4,30.03,WNW,290,0.0,0.0,57,0.00,,,0.00,Wunderground v.1.15,2013-08-10 09:27:00,
2013-08-10 03:32:00,66.8,51.5,30.03,WNW,287,0.0,1.0,58,0.00,,,0.00,Wunderground v.1.15,2013-08-10 09:32:00,
2013-08-10 03:42:00,66.4,52.1,30.03,NNW,348,1.0,1.0,60,0.00,,,0.00,Wunderground v.1.15,2013-08-10 09:42:00,
2013-08-10 03:52:00,66.0,52.2,30.04,West,264,1.0,1.0,61,0.00,,,0.00,Wunderground v.1.15,2013-08-10 09:52:00,
2013-08-10 04:02:00,65.4,52.0,30.04,West,274,0.0,0.0,62,0.00,,,0.00,Wunderground v.1.15,2013-08-10 10:02:00,
2013-08-10 04:12:00,65.1,52.2,30.03,WNW,296,1.0,1.0,63,0.00,,,0.00,Wunderground v.1.15,2013-08-10 10:12:00,
2013-08-10 04:17:00,65.0,52.1,30.03,NW,307,1.0,1.0,63,0.00,,,0.00,Wunderground v.1.15,2013-08-10 10:17:00,
2013-08-10 04:22:00,64.9,52.0,30.04,NW,314,1.0,1.0,63,0.00,,,0.00,Wunderground v.1.15,2013-08-10 10:22:00,
2013-08-10 04:27:00,64.7,52.2,30.03,North,360,1.0,1.0,64,0.00,,,0.00,Wunderground v.1.15,2013-08-10 10:27:00,
2013-08-10 04:32:00,64.6,52.1,30.04,NNW,339,1.0,3.0,64,0.00,,,0.00,Wunderground v.1.15,2013-08-10 10:32:00,
2013-08-10 04:42:00,64.3,52.3,30.04,North,6,2.0,2.0,65,0.00,,,0.00,Wunderground v.1.15,2013-08-10 10:42:00,
2013-08-10 04:52:00,63.9,52.3,30.05,SSE,153,1.0,1.0,66,0.00,,,0.00,Wunderground v.1.15,2013-08-10 10:52:00,
2013-08-10 04:57:00,63.6,52.0,30.05,SSE,158,0.0,1.0,66,0.00,,,0.00,Wunderground v.1.15,2013-08-10 10:57:00,
2013-08-10 05:02:00,63.2,52.1,30.05,SW,233,0.0,0.0,67,0.00,,,0.00,Wunderground v.1.15,2013-08-10 11:02:00,
2013-08-10 05:12:00,62.9,52.2,30.05,West,277,0.0,1.0,68,0.00,,,0.00,Wunderground v.1.15,2013-08-10 11:12:00,
2013-08-10 05:17:00,62.9,52.2,30.05,NW,321,0.0,1.0,68,0.00,,,0.00,Wunderground v.1.15,2013-08-10 11:17:00,
2013-08-10 05:22:00,62.9,52.2,30.05,NW,322,0.0,1.0,68,0.00,,,0.00,Wunderground v.1.15,2013-08-10 11:22:00,
2013-08-10 05:32:00,63.1,52.0,30.06,NW,312,0.0,0.0,67,0.00,,,0.00,Wunderground v.1.15,2013-08-10 11:32:00,
2013-08-10 05:37:00,63.0,51.9,30.06,NW,311,0.0,0.0,67,0.00,,,0.00,Wunderground v.1.15,2013-08-10 11:37:00,
2013-08-10 05:47:00,62.8,52.1,30.06,NW,314,0.0,0.0,68,0.00,,,0.00,Wunderground v.1.15,2013-08-10 11:47:00,
2013-08-10 05:52:00,62.7,52.4,30.06,NW,314,0.0,0.0,69,0.00,,,0.00,Wunderground v.1.15,2013-08-10 11:52:00,
2013-08-10 05:57:00,62.8,52.1,30.06,NW,311,0.0,0.0,68,0.00,,,0.00,Wunderground v.1.15,2013-08-10 11:57:00,
2013-08-10 06:02:00,62.8,52.1,30.07,NW,315,0.0,0.0,68,0.00,,,0.00,Wunderground v.1.15,2013-08-10 12:02:00,
2013-08-10 06:12:00,62.7,52.0,30.07,NW,311,0.0,0.0,68,0.00,,,0.00,Wunderground v.1.15,2013-08-10 12:12:00,
2013-08-10 06:22:00,62.6,51.9,30.08,NW,316,0.0,0.0,68,0.00,,,0.00,Wunderground v.1.15,2013-08-10 12:22:00,
2013-08-10 06:32:00,62.4,51.7,30.08,NW,316,0.0,0.0,68,0.00,,,0.00,Wunderground v.1.15,2013-08-10 12:32:00,
2013-08-10 06:37:00,62.4,52.1,30.08,NW,316,0.0,0.0,69,0.00,,,0.00,Wunderground v.1.15,2013-08-10 12:37:00,
2013-08-10 06:47:00,62.3,52.0,30.08,NNE,15,0.0,1.0,69,0.00,,,0.00,Wunderground v.1.15,2013-08-10 12:47:00,
2013-08-10 06:57:00,62.4,52.1,30.09,NW,321,0.0,1.0,69,0.00,,,0.00,Wunderground v.1.15,2013-08-10 12:57:00,
2013-08-10 07:02:00,62.4,51.7,30.09,NW,319,1.0,1.0,68,0.00,,,0.00,Wunderground v.1.15,2013-08-10 13:02:00,
2013-08-10 07:07:00,62.3,51.6,30.09,NW,324,1.0,1.0,68,0.00,,,0.00,Wunderground v.1.15,2013-08-10 13:07:00,
2013-08-10 07:17:00,62.4,51.7,30.10,North,1,1.0,1.0,68,0.00,,,0.00,Wunderground v.1.15,2013-08-10 13:17:00,
2013-08-10 07:27:00,62.6,51.5,30.10,North,352,1.0,2.0,67,0.00,,,0.00,Wunderground v.1.15,2013-08-10 13:27:00,
2013-08-10 07:32:00,62.7,52.0,30.10,NW,324,2.0,2.0,68,0.00,,,0.00,Wunderground v.1.15,2013-08-10 13:32:00,
2013-08-10 07:42:00,62.7,52.0,30.10,North,4,0.0,1.0,68,0.00,,,0.00,Wunderground v.1.15,2013-08-10 13:42:00,
2013-08-10 07:52:00,63.0,51.9,30.10,NNW,330,1.0,1.0,67,0.00,,,0.00,Wunderground v.1.15,2013-08-10 13:52:00,
2013-08-10 08:02:00,63.3,51.7,30.10,North,8,2.0,2.0,66,0.00,,,0.00,Wunderground v.1.15,2013-08-10 14:02:00,
2013-08-10 08:12:00,63.4,51.8,30.11,North,4,1.0,1.0,66,0.00,,,0.00,Wunderground v.1.15,2013-08-10 14:12:00,
2013-08-10 08:17:00,63.7,52.1,30.11,North,1,1.0,3.0,66,0.00,,,0.00,Wunderground v.1.15,2013-08-10 14:17:00,
2013-08-10 08:27:00,64.0,52.4,30.11,NNE,24,1.0,2.0,66,0.00,,,0.00,Wunderground v.1.15,2013-08-10 14:27:00,
2013-08-10 08:37:00,64.5,52.5,30.11,NNE,22,2.0,3.0,65,0.00,,,0.00,Wunderground v.1.15,2013-08-10 14:37:00,
2013-08-10 08:42:00,64.9,52.4,30.11,NNE,32,2.0,2.0,64,0.00,,,0.00,Wunderground v.1.15,2013-08-10 14:42:00,
2013-08-10 08:52:00,65.5,52.6,30.11,North,359,1.0,2.0,63,0.00,,,0.00,Wunderground v.1.15,2013-08-10 14:52:00,
2013-08-10 09:02:00,66.2,52.3,30.11,NNW,344,1.0,1.0,61,0.00,,,0.00,Wunderground v.1.15,2013-08-10 15:02:00,
2013-08-10 09:12:00,67.0,52.2,30.11,NNW,346,1.0,1.0,59,0.00,,,0.00,Wunderground v.1.15,2013-08-10 15:12:00,
2013-08-10 09:22:00,67.9,52.6,30.11,SSE,160,0.0,1.0,58,0.00,,,0.00,Wunderground v.1.15,2013-08-10 15:22:00,
2013-08-10 09:32:00,69.2,51.3,30.11,SSE,158,1.0,1.0,53,0.00,,,0.00,Wunderground v.1.15,2013-08-10 15:32:00,
2013-08-10 09:42:00,70.4,50.9,30.11,SE,131,2.0,2.0,50,0.00,,,0.00,Wunderground v.1.15,2013-08-10 15:42:00,
2013-08-10 09:47:00,71.3,51.7,30.11,South,172,2.0,3.0,50,0.00,,,0.00,Wunderground v.1.15,2013-08-10 15:47:00,
2013-08-10 09:57:00,72.2,51.4,30.11,SSE,148,2.0,2.0,48,0.00,,,0.00,Wunderground v.1.15,2013-08-10 15:57:00,
2013-08-10 10:02:00,72.4,51.6,30.11,WSW,242,3.0,3.0,48,0.00,,,0.00,Wunderground v.1.15,2013-08-10 16:02:00,
2013-08-10 10:12:00,72.6,51.8,30.11,SW,236,1.0,1.0,48,0.00,,,0.00,Wunderground v.1.15,2013-08-10 16:12:00,
2013-08-10 10:17:00,72.9,52.1,30.11,SSE,160,2.0,2.0,48,0.00,,,0.00,Wunderground v.1.15,2013-08-10 16:17:00,
2013-08-10 10:27:00,73.9,51.2,30.11,WNW,288,2.0,3.0,45,0.00,,,0.00,Wunderground v.1.15,2013-08-10 16:27:00,
2013-08-10 10:32:00,74.1,50.8,30.11,South,177,2.0,2.0,44,0.00,,,0.00,Wunderground v.1.15,2013-08-10 16:32:00,
2013-08-10 10:37:00,74.1,51.4,30.11,SSW,201,2.0,2.0,45,0.00,,,0.00,Wunderground v.1.15,2013-08-10 16:37:00,
2013-08-10 10:47:00,75.0,51.6,30.11,SW,226,0.0,1.0,44,0.00,,,0.00,Wunderground v.1.15,2013-08-10 16:47:00,
2013-08-10 10:57:00,75.7,51.0,30.10,South,188,2.0,3.0,42,0.00,,,0.00,Wunderground v.1.15,2013-08-10 16:57:00,
2013-08-10 11:02:00,76.0,51.2,30.10,SSE,151,2.0,5.0,42,0.00,,,0.00,Wunderground v.1.15,2013-08-10 17:02:00,
2013-08-10 11:12:00,76.0,50.6,30.10,East,96,3.0,3.0,41,0.00,,,0.00,Wunderground v.1.15,2013-08-10 17:12:00,
2013-08-10 11:17:00,76.1,50.0,30.10,SSE,152,3.0,3.0,40,0.00,,,0.00,Wunderground v.1.15,2013-08-10 17:17:00,
2013-08-10 11:27:00,76.1,50.0,30.09,SSE,162,3.0,3.0,40,0.00,,,0.00,Wunderground v.1.15,2013-08-10 17:27:00,
2013-08-10 11:37:00,77.1,50.9,30.09,South,174,3.0,3.0,40,0.00,,,0.00,Wunderground v.1.15,2013-08-10 17:37:00,
2013-08-10 11:47:00,77.4,51.2,30.09,WSW,253,2.0,2.0,40,0.00,,,0.00,Wunderground v.1.15,2013-08-10 17:47:00,
2013-08-10 11:52:00,77.5,50.6,30.09,South,191,3.0,5.0,39,0.00,,,0.00,Wunderground v.1.15,2013-08-10 17:52:00,
2013-08-10 12:02:00,78.5,50.8,30.09,NNW,332,1.0,3.0,38,0.00,,,0.00,Wunderground v.1.15,2013-08-10 18:02:00,
2013-08-10 12:12:00,77.8,51.5,30.08,South,169,3.0,3.0,40,0.00,,,0.00,Wunderground v.1.15,2013-08-10 18:12:00,
2013-08-10 12:22:00,78.5,52.2,30.08,SE,127,2.0,5.0,40,0.00,,,0.00,Wunderground v.1.15,2013-08-10 18:22:00,
2013-08-10 12:27:00,78.7,51.7,30.07,West,278,2.0,5.0,39,0.00,,,0.00,Wunderground v.1.15,2013-08-10 18:27:00,
2013-08-10 12:37:00,78.8,50.3,30.07,SSW,208,4.0,6.0,37,0.00,,,0.00,Wunderground v.1.15,2013-08-10 18:37:00,
2013-08-10 12:47:00,78.5,50.8,30.06,SSE,165,4.0,4.0,38,0.00,,,0.00,Wunderground v.1.15,2013-08-10 18:47:00,
2013-08-10 12:57:00,80.2,51.6,30.05,SE,132,1.0,3.0,37,0.00,,,0.00,Wunderground v.1.15,2013-08-10 18:57:00,
2013-08-10 13:02:00,80.4,51.0,30.05,SSE,148,2.0,5.0,36,0.00,,,0.00,Wunderground v.1.15,2013-08-10 19:02:00,
2013-08-10 13:12:00,80.9,51.4,30.04,SE,139,3.0,7.0,36,0.00,,,0.00,Wunderground v.1.15,2013-08-10 19:12:00,
2013-08-10 13:17:00,80.6,51.9,30.04,ESE,121,3.0,7.0,37,0.00,,,0.00,Wunderground v.1.15,2013-08-10 19:17:00,
2013-08-10 13:27:00,81.9,51.6,30.03,SSW,193,3.0,4.0,35,0.00,,,0.00,Wunderground v.1.15,2013-08-10 19:27:00,
2013-08-10 13:37:00,81.6,51.3,30.02,WSW,245,4.0,4.0,35,0.00,,,0.00,Wunderground v.1.15,2013-08-10 19:37:00,
2013-08-10 13:42:00,81.7,51.4,30.01,South,172,5.0,5.0,35,0.00,,,0.00,Wunderground v.1.15,2013-08-10 19:42:00,
2013-08-10 13:52:00,81.7,51.4,30.01,WSW,246,5.0,5.0,35,0.00,,,0.00,Wunderground v.1.15,2013-08-10 19:52:00,
2013-08-10 14:02:00,81.9,52.3,30.00,SE,139,6.0,6.0,36,0.00,,,0.00,Wunderground v.1.15,2013-08-10 20:02:00,
2013-08-10 14:12:00,82.9,52.4,29.99,SW,216,5.0,5.0,35,0.00,,,0.00,Wunderground v.1.15,2013-08-10 20:12:00,
2013-08-10 14:17:00,82.5,52.1,29.99,SE,134,6.0,9.0,35,0.00,,,0.00,Wunderground v.1.15,2013-08-10 20:17:00,
2013-08-10 14:22:00,82.4,52.0,29.98,SSE,152,7.0,10.0,35,0.00,,,0.00,Wunderground v.1.15,2013-08-10 20:22:00,
2013-08-10 14:32:00,82.4,52.0,29.98,SSE,155,6.0,6.0,35,0.00,,,0.00,Wunderground v.1.15,2013-08-10 20:32:00,
2013-08-10 14:42:00,82.3,51.1,29.98,East,97,6.0,6.0,34,0.00,,,0.00,Wunderground v.1.15,2013-08-10 20:42:00,
2013-08-10 14:47:00,82.9,50.0,29.98,South,188,6.0,9.0,32,0.00,,,0.00,Wunderground v.1.15,2013-08-10 20:47:00,
2013-08-10 14:52:00,83.2,50.3,29.98,WSW,243,5.0,5.0,32,0.00,,,0.00,Wunderground v.1.15,2013-08-10 20:52:00,
2013-08-10 15:02:00,84.1,51.1,29.98,South,172,3.0,3.0,32,0.00,,,0.00,Wunderground v.1.15,2013-08-10 21:02:00,
2013-08-10 15:12:00,84.5,50.5,29.97,SSW,195,4.0,7.0,31,0.00,,,0.00,Wunderground v.1.15,2013-08-10 21:12:00,
2013-08-10 15:17:00,84.7,51.6,29.97,South,172,5.0,9.0,32,0.00,,,0.00,Wunderground v.1.15,2013-08-10 21:17:00,
2013-08-10 15:22:00,84.6,52.3,29.96,South,184,4.0,8.0,33,0.00,,,0.00,Wunderground v.1.15,2013-08-10 21:22:00,
2013-08-10 15:32:00,84.2,52.8,29.96,SSW,210,4.0,4.0,34,0.00,,,0.00,Wunderground v.1.15,2013-08-10 21:32:00,
2013-08-10 15:42:00,84.3,52.1,29.95,West,263,3.0,4.0,33,0.00,,,0.00,Wunderground v.1.15,2013-08-10 21:42:00,
2013-08-10 15:47:00,83.7,51.5,29.95,SW,214,3.0,4.0,33,0.00,,,0.00,Wunderground v.1.15,2013-08-10 21:47:00,
2013-08-10 15:52:00,83.2,51.9,29.95,SSW,210,4.0,5.0,34,0.00,,,0.00,Wunderground v.1.15,2013-08-10 21:52:00,
2013-08-10 16:02:00,82.7,51.5,29.94,ESE,103,4.0,4.0,34,0.00,,,0.00,Wunderground v.1.15,2013-08-10 22:02:00,
2013-08-10 16:12:00,81.9,53.1,29.94,WSW,248,3.0,8.0,37,0.00,,,0.00,Wunderground v.1.15,2013-08-10 22:12:00,
2013-08-10 16:22:00,81.6,53.5,29.95,WSW,252,3.0,7.0,38,0.00,,,0.00,Wunderground v.1.15,2013-08-10 22:22:00,
2013-08-10 16:32:00,81.6,53.5,29.96,SSW,193,5.0,5.0,38,0.00,,,0.00,Wunderground v.1.15,2013-08-10 22:32:00,
2013-08-10 16:37:00,81.4,54.1,29.96,SSW,204,5.0,8.0,39,0.00,,,0.00,Wunderground v.1.15,2013-08-10 22:37:00,
2013-08-10 16:47:00,81.0,53.0,29.95,South,191,5.0,5.0,38,0.00,,,0.00,Wunderground v.1.15,2013-08-10 22:47:00,
2013-08-10 16:52:00,80.8,53.5,29.95,SSW,193,4.0,4.0,39,0.00,,,0.00,Wunderground v.1.15,2013-08-10 22:52:00,
2013-08-10 17:02:00,80.6,52.6,29.95,WSW,256,3.0,3.0,38,0.00,,,0.00,Wunderground v.1.15,2013-08-10 23:02:00,
2013-08-10 17:12:00,80.1,53.6,29.96,SSE,166,3.0,3.0,40,0.00,,,0.00,Wunderground v.1.15,2013-08-10 23:12:00,
2013-08-10 17:17:00,79.9,53.4,29.97,SW,229,4.0,4.0,40,0.00,,,0.00,Wunderground v.1.15,2013-08-10 23:17:00,
2013-08-10 17:27:00,79.8,54.0,29.97,WSW,239,3.0,4.0,41,0.00,,,0.00,Wunderground v.1.15,2013-08-10 23:27:00,
2013-08-10 17:37:00,79.7,53.9,29.97,WNW,290,2.0,3.0,41,0.00,,,0.00,Wunderground v.1.15,2013-08-10 23:37:00,
2013-08-10 17:42:00,79.6,53.8,29.96,West,281,2.0,3.0,41,0.00,,,0.00,Wunderground v.1.15,2013-08-10 23:42:00,
2013-08-10 17:47:00,79.6,54.5,29.96,SW,228,2.0,3.0,42,0.00,,,0.00,Wunderground v.1.15,2013-08-10 23:47:00,
2013-08-10 17:57:00,79.5,55.0,29.97,South,172,2.0,2.0,43,0.00,,,0.00,Wunderground v.1.15,2013-08-10 23:57:00,
2013-08-10 18:02:00,79.5,55.0,29.97,SW,235,2.0,3.0,43,0.00,,,0.00,Wunderground v.1.15,2013-08-11 00:02:00,
2013-08-10 18:12:00,78.4,47.7,29.98,NNW,331,5.0,6.0,34,0.00,,,0.00,Wunderground v.1.15,2013-08-11 00:12:00,
2013-08-10 18:17:00,77.7,45.5,29.98,NW,316,5.0,6.0,32,0.00,,,0.00,Wunderground v.1.15,2013-08-11 00:17:00,
2013-08-10 18:22:00,77.4,45.2,29.98,NW,323,4.0,4.0,32,0.00,,,0.00,Wunderground v.1.15,2013-08-11 00:22:00,
2013-08-10 18:32:00,76.9,44.0,29.98,NW,314,4.0,4.0,31,0.00,,,0.00,Wunderground v.1.15,2013-08-11 00:32:00,
2013-08-10 18:42:00,76.5,44.4,29.99,West,281,4.0,4.0,32,0.00,,,0.00,Wunderground v.1.15,2013-08-11 00:42:00,
2013-08-10 18:47:00,76.3,44.3,29.99,North,354,3.0,4.0,32,0.00,,,0.00,Wunderground v.1.15,2013-08-11 00:47:00,
2013-08-10 18:57:00,76.0,44.0,30.00,WSW,252,3.0,3.0,32,0.00,,,0.00,Wunderground v.1.15,2013-08-11 00:57:00,
2013-08-10 19:02:00,75.9,43.9,30.01,North,356,3.0,5.0,32,0.00,,,0.00,Wunderground v.1.15,2013-08-11 01:02:00,
2013-08-10 19:12:00,74.6,45.1,30.04,North,353,8.0,11.0,35,0.00,,,0.00,Wunderground v.1.15,2013-08-11 01:12:00,
2013-08-10 19:17:00,73.8,45.2,30.05,NNW,338,8.0,11.0,36,0.00,,,0.00,Wunderground v.1.15,2013-08-11 01:17:00,
2013-08-10 19:27:00,72.4,46.0,30.06,NNW,335,11.0,12.0,39,0.00,,,0.00,Wunderground v.1.15,2013-08-11 01:27:00,
2013-08-10 19:32:00,71.7,46.7,30.08,North,10,11.0,11.0,41,0.00,,,0.00,Wunderground v.1.15,2013-08-11 01:32:00,
2013-08-10 19:42:00,69.7,50.2,30.08,North,8,7.0,12.0,50,0.00,,,0.00,Wunderground v.1.15,2013-08-11 01:42:00,
2013-08-10 19:52:00,68.4,48.5,30.08,NNE,21,9.0,12.0,49,0.00,,,0.00,Wunderground v.1.15,2013-08-11 01:52:00,
2013-08-10 20:02:00,67.8,49.0,30.08,North,349,10.0,10.0,51,0.00,,,0.00,Wunderground v.1.15,2013-08-11 02:02:00,
2013-08-10 20:12:00,67.1,48.4,30.09,North,353,9.0,9.0,51,0.00,,,0.00,Wunderground v.1.15,2013-08-11 02:12:00,
2013-08-10 20:17:00,66.9,48.7,30.10,NNW,338,9.0,9.0,52,0.00,,,0.00,Wunderground v.1.15,2013-08-11 02:17:00,
2013-08-10 20:27:00,67.0,48.8,30.10,NNW,335,8.0,8.0,52,0.00,,,0.00,Wunderground v.1.15,2013-08-11 02:27:00,
2013-08-10 20:37:00,66.2,50.5,30.09,NE,51,9.0,9.0,57,0.00,,,0.00,Wunderground v.1.15,2013-08-11 02:37:00,
2013-08-10 20:47:00,65.5,50.3,30.08,North,11,8.0,12.0,58,0.00,,,0.00,Wunderground v.1.15,2013-08-11 02:47:00,
2013-08-10 20:57:00,65.7,49.1,30.08,North,356,10.0,10.0,55,0.00,,,0.00,Wunderground v.1.15,2013-08-11 02:57:00,
2013-08-10 21:02:00,65.9,48.8,30.08,NE,35,8.0,8.0,54,0.00,,,0.00,Wunderground v.1.15,2013-08-11 03:02:00,
2013-08-10 21:12:00,66.2,49.6,30.09,North,354,7.0,7.0,55,0.00,,,0.00,Wunderground v.1.15,2013-08-11 03:12:00,
2013-08-10 21:17:00,66.1,49.5,30.10,NNE,13,7.0,7.0,55,0.00,,,0.00,Wunderground v.1.15,2013-08-11 03:17:00,
2013-08-10 21:32:00,66.2,49.6,30.11,NW,323,5.0,5.0,55,0.00,,,0.00,Wunderground v.1.15,2013-08-11 03:32:00,
2013-08-10 21:47:00,65.7,51.0,30.11,NNW,328,6.0,8.0,59,0.00,,,0.00,Wunderground v.1.15,2013-08-11 03:47:00,
2013-08-10 21:52:00,65.3,51.1,30.11,NNW,329,9.0,9.0,60,0.00,,,0.00,Wunderground v.1.15,2013-08-11 03:52:00,
2013-08-10 22:02:00,64.2,51.3,30.10,NNW,330,9.0,11.0,63,0.00,,,0.00,Wunderground v.1.15,2013-08-11 04:02:00,
2013-08-10 22:07:00,63.8,52.2,30.09,North,349,9.0,11.0,66,0.00,,,0.00,Wunderground v.1.15,2013-08-11 04:07:00,
2013-08-10 22:12:00,63.8,52.2,30.08,NNE,32,8.0,8.0,66,0.00,,,0.00,Wunderground v.1.15,2013-08-11 04:12:00,
2013-08-10 22:22:00,64.7,52.2,30.08,NE,53,9.0,9.0,64,0.00,,,0.00,Wunderground v.1.15,2013-08-11 04:22:00,
2013-08-10 22:27:00,64.6,52.6,30.09,NNE,23,7.0,9.0,65,0.00,,,0.00,Wunderground v.1.15,2013-08-11 04:27:00,
2013-08-10 22:37:00,64.9,52.0,30.09,NNE,29,3.0,4.0,63,0.00,,,0.00,Wunderground v.1.15,2013-08-11 04:37:00,
2013-08-10 22:47:00,65.5,51.7,30.09,NNW,335,2.0,3.0,61,0.00,,,0.00,Wunderground v.1.15,2013-08-11 04:47:00,
2013-08-10 22:57:00,65.7,51.4,30.09,SSE,149,1.0,2.0,60,0.00,,,0.00,Wunderground v.1.15,2013-08-11 04:57:00,
2013-08-10 23:02:00,65.7,51.4,30.09,South,172,1.0,3.0,60,0.00,,,0.00,Wunderground v.1.15,2013-08-11 05:02:00,
2013-08-10 23:12:00,66.5,51.3,30.09,South,191,2.0,4.0,58,0.00,,,0.00,Wunderground v.1.15,2013-08-11 05:12:00,
2013-08-10 23:22:00,66.4,51.6,30.10,SW,229,2.0,2.0,59,0.00,,,0.00,Wunderground v.1.15,2013-08-11 05:22:00,
2013-08-10 23:27:00,66.4,51.6,30.11,SE,145,1.0,2.0,59,0.00,,,0.00,Wunderground v.1.15,2013-08-11 05:27:00,
2013-08-10 23:37:00,66.3,52.0,30.12,SW,226,3.0,3.0,60,0.00,,,0.00,Wunderground v.1.15,2013-08-11 05:37:00,
2013-08-10 23:42:00,66.3,52.4,30.13,South,169,3.0,3.0,61,0.00,,,0.00,Wunderground v.1.15,2013-08-11 05:42:00,
2013-08-10 23:47:00,66.0,53.0,30.13,SSE,159,3.0,3.0,63,0.00,,,0.00,Wunderground v.1.15,2013-08-11 05:47:00,
2013-08-10 23:57:00,65.6,53.5,30.14,SSE,165,3.0,4.0,65,0.00,,,0.00,Wunderground v.1.15,2013-08-11 05:57:00,